Time;durP1;ratioP1;P1;durP2;ratioP2;P2;SDS_P1;SDS_P2;PMS_P1;PMS_P2;Temp;Humidity;BMP_temperature;BMP_pressure;BME280_temperature;BME280_humidity;BME280_pressure;Samples;Min_cycle;Max_cycle;Signal;HPM_P1;HPM_P2
2023/02/19 00:00:53;;;;;;;60.88;43.70;;;;;;;;;;10026232;28;20128;-63
2023/02/19 00:05:47;;;;;;;58.22;38.95;;;;;;;;;;10026377;28;20089;-62
2023/02/19 00:10:41;;;;;;;99.30;60.97;;;;;;;;;;10026172;28;20050;-62
2023/02/19 00:15:34;;;;;;;73.43;50.05;;;;;;;;;;10026291;28;20042;-62
2023/02/19 00:20:27;;;;;;;53.55;39.53;;;;;;;;;;10026340;28;20376;-62
2023/02/19 00:25:20;;;;;;;65.55;45.53;;;;;;;;;;10026023;28;20042;-62
2023/02/19 00:30:14;;;;;;;66.47;45.42;;;;;;;;;;10025595;28;20592;-62
2023/02/19 00:35:08;;;;;;;65.82;44.28;;;;;;;;;;10024826;28;20100;-61
2023/02/19 00:40:01;;;;;;;59.47;41.03;;;;;;;;;;10025887;28;20475;-61
2023/02/19 00:44:54;;;;;;;54.05;37.42;;;;;;;;;;10011922;28;20054;-61
2023/02/19 00:49:48;;;;;;;55.15;38.92;;;;;;;;;;10025391;28;20450;-61
2023/02/19 00:54:42;;;;;;;51.85;40.13;;;;;;;;;;10023981;28;20499;-62
2023/02/19 00:59:35;;;;;;;44.92;34.65;;;;;;;;;;10024469;28;20133;-62
2023/02/19 01:04:29;;;;;;;42.85;32.90;;;;;;;;;;10024307;28;20734;-61
2023/02/19 01:09:22;;;;;;;48.05;31.67;;;;;;;;;;10020268;28;20112;-61
2023/02/19 01:14:15;;;;;;;46.38;35.15;;;;;;;;;;10023683;28;20053;-61
2023/02/19 01:19:10;;;;;;;49.08;34.30;;;;;;;;;;10023671;28;20045;-61
2023/02/19 01:24:05;;;;;;;48.75;33.22;;;;;;;;;;10022683;28;20073;-61
2023/02/19 01:28:59;;;;;;;43.13;34.25;;;;;;;;;;10025645;28;20042;-61
2023/02/19 01:33:55;;;;;;;44.83;32.67;;;;;;;;;;10031769;28;20049;-61
2023/02/19 01:38:48;;;;;;;44.33;32.22;;;;;;;;;;10030696;28;20041;-61
2023/02/19 01:44:11;;;;;;;41.67;32.97;;;;;;;;;;10019839;28;20049;-61
2023/02/19 01:49:17;;;;;;;41.42;30.08;;;;;;;;;;10031717;28;20108;-61
2023/02/19 01:54:12;;;;;;;35.40;25.65;;;;;;;;;;10023466;28;20054;-61
2023/02/19 01:59:05;;;;;;;35.40;25.30;;;;;;;;;;10017885;28;20136;-61
2023/02/19 02:04:01;;;;;;;32.72;23.63;;;;;;;;;;10029310;28;20073;-61
2023/02/19 02:14:07;;;;;;;29.45;22.83;;;;;;;;;;10017610;28;20069;-61
2023/02/19 02:19:08;;;;;;;32.92;22.73;;;;;;;;;;10029101;28;20076;-61
2023/02/19 02:24:13;;;;;;;25.98;21.27;;;;;;;;;;10029800;28;20096;-61
2023/02/19 02:29:37;;;;;;;32.70;20.95;;;;;;;;;;10028334;28;20092;-61
2023/02/19 02:34:40;;;;;;;30.13;21.10;;;;;;;;;;10027962;28;20043;-61
2023/02/19 02:39:35;;;;;;;25.77;20.08;;;;;;;;;;10012090;28;20395;-61
2023/02/19 02:44:36;;;;;;;28.00;18.90;;;;;;;;;;10022306;28;20054;-61
2023/02/19 02:49:29;;;;;;;21.33;16.58;;;;;;;;;;10027989;28;20062;-61
2023/02/19 02:59:39;;;;;;;31.30;19.42;;;;;;;;;;10024626;28;20049;-61
2023/02/19 03:10:04;;;;;;;23.98;19.20;;;;;;;;;;10018323;28;20054;-61
2023/02/19 03:20:13;;;;;;;24.95;19.90;;;;;;;;;;10016537;28;20084;-61
2023/02/19 03:26:05;;;;;;;28.33;20.45;;;;;;;;;;10003341;28;20136;-61
2023/02/19 03:31:01;;;;;;;25.42;19.40;;;;;;;;;;9996311;28;20074;-60
2023/02/19 03:36:03;;;;;;;24.83;18.42;;;;;;;;;;10024993;28;20053;-60
2023/02/19 03:41:03;;;;;;;24.42;19.35;;;;;;;;;;10008402;28;20517;-60
2023/02/19 03:46:00;;;;;;;24.20;19.23;;;;;;;;;;10025593;28;20415;-60
2023/02/19 03:50:55;;;;;;;26.13;19.67;;;;;;;;;;10026152;28;20136;-60
2023/02/19 03:56:09;;;;;;;25.33;19.52;;;;;;;;;;10016398;28;20518;-60
2023/02/19 04:01:19;;;;;;;29.38;22.30;;;;;;;;;;10014917;28;20050;-62
2023/02/19 04:06:16;;;;;;;27.65;19.60;;;;;;;;;;10014222;28;20129;-62
2023/02/19 04:11:09;;;;;;;24.65;17.45;;;;;;;;;;10025577;28;20111;-62
2023/02/19 04:16:07;;;;;;;22.55;18.25;;;;;;;;;;10024541;28;20054;-62
2023/02/19 04:21:02;;;;;;;30.77;21.15;;;;;;;;;;10024867;28;20045;-62
2023/02/19 04:25:58;;;;;;;25.52;19.88;;;;;;;;;;10026208;28;20070;-61
2023/02/19 04:30:51;;;;;;;24.10;19.77;;;;;;;;;;10012547;28;20400;-61
2023/02/19 04:35:45;;;;;;;26.45;20.80;;;;;;;;;;10021168;28;20408;-62
2023/02/19 04:40:38;;;;;;;29.60;20.73;;;;;;;;;;10026744;28;20129;-61
2023/02/19 04:45:31;;;;;;;28.52;20.17;;;;;;;;;;10020524;28;20050;-61
2023/02/19 04:50:24;;;;;;;22.88;18.27;;;;;;;;;;10025340;28;20058;-62
2023/02/19 04:55:18;;;;;;;22.40;17.35;;;;;;;;;;10025459;28;20057;-62
2023/02/19 05:00:11;;;;;;;24.40;18.50;;;;;;;;;;10026180;28;20069;-62
2023/02/19 05:05:05;;;;;;;22.05;18.40;;;;;;;;;;10021504;28;20140;-62
2023/02/19 05:09:59;;;;;;;20.80;16.77;;;;;;;;;;10026326;28;20100;-62
2023/02/19 05:14:53;;;;;;;20.80;17.58;;;;;;;;;;10032824;28;20127;-62
2023/02/19 05:19:47;;;;;;;26.33;18.65;;;;;;;;;;10023966;28;20054;-61
2023/02/19 05:24:39;;;;;;;24.88;17.90;;;;;;;;;;10019693;28;20046;-61
2023/02/19 05:29:33;;;;;;;20.00;15.57;;;;;;;;;;10018735;28;20057;-61
2023/02/19 05:34:26;;;;;;;25.80;19.20;;;;;;;;;;10028657;28;20407;-60
2023/02/19 05:39:20;;;;;;;32.20;20.08;;;;;;;;;;10020837;28;20133;-61
2023/02/19 05:44:13;;;;;;;27.25;19.77;;;;;;;;;;10030609;28;20050;-61
2023/02/19 05:49:06;;;;;;;23.65;19.48;;;;;;;;;;10030929;28;20418;-61
2023/02/19 05:54:00;;;;;;;22.88;18.27;;;;;;;;;;10028338;28;20431;-61
2023/02/19 05:58:55;;;;;;;31.80;20.90;;;;;;;;;;10025927;28;20552;-61
2023/02/19 06:03:48;;;;;;;24.75;18.77;;;;;;;;;;10019803;28;20095;-61
2023/02/19 06:08:41;;;;;;;23.15;17.48;;;;;;;;;;10016100;28;20121;-60
2023/02/19 06:13:35;;;;;;;22.08;17.45;;;;;;;;;;10021803;28;20070;-60
2023/02/19 06:18:29;;;;;;;25.35;17.33;;;;;;;;;;10017781;28;20523;-61
2023/02/19 06:23:22;;;;;;;26.42;20.23;;;;;;;;;;10008896;28;20081;-60
2023/02/19 06:28:15;;;;;;;21.60;17.80;;;;;;;;;;10014098;28;20050;-60
2023/02/19 06:33:08;;;;;;;23.08;18.98;;;;;;;;;;10008173;28;20078;-61
2023/02/19 06:38:03;;;;;;;23.92;19.65;;;;;;;;;;10016704;28;20062;-62
2023/02/19 06:42:56;;;;;;;27.45;19.85;;;;;;;;;;10009984;28;20050;-61
2023/02/19 06:47:49;;;;;;;25.98;18.65;;;;;;;;;;10013857;28;20042;-62
2023/02/19 06:52:42;;;;;;;42.67;27.67;;;;;;;;;;10015744;28;20049;-61
2023/02/19 06:57:35;;;;;;;31.88;23.35;;;;;;;;;;10011275;28;20498;-62
2023/02/19 07:02:29;;;;;;;27.83;21.33;;;;;;;;;;10006942;28;20081;-62
2023/02/19 07:07:23;;;;;;;29.52;23.95;;;;;;;;;;10008821;28;20064;-62
2023/02/19 07:12:17;;;;;;;29.55;21.98;;;;;;;;;;10009299;28;20556;-60
2023/02/19 07:17:10;;;;;;;30.30;23.25;;;;;;;;;;10000971;28;20073;-62
2023/02/19 07:22:03;;;;;;;30.70;24.88;;;;;;;;;;10013940;28;20050;-60
2023/02/19 07:26:56;;;;;;;30.02;24.90;;;;;;;;;;10009136;28;20278;-61
2023/02/19 07:31:50;;;;;;;38.58;29.63;;;;;;;;;;10013105;28;20111;-60
2023/02/19 07:36:43;;;;;;;44.35;35.72;;;;;;;;;;10003737;28;20085;-60
2023/02/19 07:41:37;;;;;;;52.70;41.30;;;;;;;;;;10002973;28;20072;-60
2023/02/19 07:46:31;;;;;;;47.50;36.13;;;;;;;;;;9999373;28;20054;-60
2023/02/19 07:51:24;;;;;;;50.83;36.45;;;;;;;;;;9997669;28;20477;-60
2023/02/19 07:56:18;;;;;;;42.20;30.20;;;;;;;;;;10002732;28;20081;-60
2023/02/19 08:01:16;;;;;;;41.72;29.75;;;;;;;;;;10011861;28;20038;-60
2023/02/19 08:06:11;;;;;;;36.93;27.83;;;;;;;;;;10017746;28;20049;-60
2023/02/19 08:16:18;;;;;;;30.20;24.73;;;;;;;;;;10010849;28;20414;-60
2023/02/19 08:21:29;;;;;;;30.67;23.80;;;;;;;;;;10018812;28;20387;-60
2023/02/19 08:26:25;;;;;;;34.05;23.17;;;;;;;;;;10012427;28;20053;-60
2023/02/19 08:31:19;;;;;;;30.67;22.17;;;;;;;;;;10011736;28;20042;-61
2023/02/19 08:36:13;;;;;;;36.92;24.13;;;;;;;;;;10019655;28;20046;-60
2023/02/19 08:41:11;;;;;;;32.53;26.70;;;;;;;;;;10015771;28;20041;-61
2023/02/19 08:46:08;;;;;;;33.03;27.13;;;;;;;;;;10008160;28;20054;-62
2023/02/19 08:51:06;;;;;;;35.30;27.85;;;;;;;;;;10014663;28;20073;-60
2023/02/19 08:56:05;;;;;;;;;;;;;;;;;;10010030;28;20038;-60
2023/02/19 09:00:58;;;;;;;29.27;23.65;;;;;;;;;;10015375;28;19925;-61
2023/02/19 09:05:52;;;;;;;22.27;19.33;;;;;;;;;;10017869;28;20080;-60
2023/02/19 09:10:45;;;;;;;18.27;16.42;;;;;;;;;;10028045;28;20050;-60
2023/02/19 09:15:39;;;;;;;20.48;17.50;;;;;;;;;;10029539;28;20058;-60
2023/02/19 09:20:33;;;;;;;18.15;16.08;;;;;;;;;;10004923;28;20061;-60
2023/02/19 09:25:27;;;;;;;16.08;14.43;;;;;;;;;;10027342;28;20123;-59
2023/02/19 09:30:21;;;;;;;16.60;13.88;;;;;;;;;;10012556;28;20046;-59
2023/02/19 09:35:15;;;;;;;14.45;12.48;;;;;;;;;;10018479;28;20541;-59
2023/02/19 09:40:09;;;;;;;14.48;12.23;;;;;;;;;;10031689;28;20050;-59
2023/02/19 09:45:04;;;;;;;14.50;11.90;;;;;;;;;;10030558;28;20057;-59
2023/02/19 09:50:06;;;;;;;14.25;12.70;;;;;;;;;;10031935;28;20431;-59
2023/02/19 09:55:23;;;;;;;18.20;16.30;;;;;;;;;;10021089;28;20503;-59
2023/02/19 10:00:45;;;;;;;13.80;12.23;;;;;;;;;;10022913;28;20050;-59
2023/02/19 10:05:38;;;;;;;17.02;13.60;;;;;;;;;;10018352;28;20108;-59
2023/02/19 10:10:34;;;;;;;15.27;13.45;;;;;;;;;;10025027;28;20050;-59
2023/02/19 10:15:53;;;;;;;18.13;13.93;;;;;;;;;;10028885;28;20137;-59
2023/02/19 10:20:47;;;;;;;15.02;13.45;;;;;;;;;;10028666;28;20054;-59
2023/02/19 10:25:59;;;;;;;16.70;13.63;;;;;;;;;;10014575;28;20129;-59
2023/02/19 10:30:56;;;;;;;15.70;14.13;;;;;;;;;;10021774;28;20074;-59
2023/02/19 10:35:51;;;;;;;15.25;13.70;;;;;;;;;;10005655;28;20517;-60
2023/02/19 10:40:45;;;;;;;14.23;12.75;;;;;;;;;;10009259;28;20046;-59
2023/02/19 10:45:43;;;;;;;14.77;13.27;;;;;;;;;;10012650;28;20057;-59
2023/02/19 10:50:38;;;;;;;16.67;13.52;;;;;;;;;;10018533;28;20057;-59
2023/02/19 10:55:36;;;;;;;15.70;13.77;;;;;;;;;;10011271;28;20077;-59
2023/02/19 11:00:29;;;;;;;;;;;;;;;;;;10018524;28;20054;-59
2023/02/19 11:05:23;;;;;;;18.00;14.40;;;;;;;;;;10026479;28;19930;-59
2023/02/19 11:10:28;;;;;;;17.40;14.07;;;;;;;;;;10017771;28;20046;-59
2023/02/19 11:15:22;;;;;;;20.25;14.80;;;;;;;;;;10027479;28;20076;-59
2023/02/19 11:20:16;;;;;;;19.35;15.10;;;;;;;;;;10010888;28;20053;-59
2023/02/19 11:25:13;;;;;;;24.73;15.93;;;;;;;;;;10027179;28;20056;-59
2023/02/19 11:30:33;;;;;;;19.80;14.45;;;;;;;;;;10027898;28;20046;-59
2023/02/19 11:35:29;;;;;;;16.65;14.38;;;;;;;;;;10027310;28;20502;-59
2023/02/19 11:40:32;;;;;;;19.75;14.10;;;;;;;;;;10026826;28;20077;-59
2023/02/19 11:46:09;;;;;;;20.60;15.73;;;;;;;;;;10020892;28;20104;-59
2023/02/19 11:51:04;;;;;;;16.48;14.43;;;;;;;;;;9969847;28;20050;-59
2023/02/19 11:56:13;;;;;;;16.55;13.80;;;;;;;;;;10012857;28;20046;-59
2023/02/19 12:01:34;;;;;;;19.65;15.07;;;;;;;;;;10022413;28;20054;-59
2023/02/19 12:06:36;;;;;;;15.55;13.85;;;;;;;;;;10025927;28;20517;-59
2023/02/19 12:11:58;;;;;;;16.35;12.68;;;;;;;;;;10025007;28;20073;-59
2023/02/19 12:17:18;;;;;;;19.65;15.18;;;;;;;;;;10026399;28;20049;-59
2023/02/19 12:22:14;;;;;;;15.43;13.70;;;;;;;;;;10026235;28;20050;-59
2023/02/19 12:27:38;;;;;;;15.80;11.63;;;;;;;;;;10024721;28;20164;-59
2023/02/19 12:32:48;;;;;;;17.30;13.55;;;;;;;;;;10014738;28;20061;-58
2023/02/19 12:37:59;;;;;;;17.48;14.07;;;;;;;;;;10016221;28;20049;-59
2023/02/19 12:43:31;;;;;;;15.20;13.38;;;;;;;;;;10024650;28;20424;-59
2023/02/19 12:48:38;;;;;;;16.40;14.43;;;;;;;;;;9981469;28;20121;-58
2023/02/19 12:53:49;;;;;;;16.25;13.60;;;;;;;;;;10015706;28;20054;-59
2023/02/19 12:59:07;;;;;;;17.42;13.52;;;;;;;;;;10022098;28;20050;-59
2023/02/19 13:04:11;;;;;;;14.43;12.93;;;;;;;;;;10025175;28;20045;-58
2023/02/19 13:09:19;;;;;;;14.68;13.10;;;;;;;;;;10024817;28;20096;-58
2023/02/19 13:14:48;;;;;;;15.43;13.75;;;;;;;;;;10023999;28;20057;-58
2023/02/19 13:20:03;;;;;;;18.02;15.15;;;;;;;;;;10018009;28;20062;-58
2023/02/19 13:24:57;;;;;;;17.45;15.30;;;;;;;;;;10015173;28;20046;-58
2023/02/19 13:30:19;;;;;;;17.33;14.13;;;;;;;;;;10014475;28;20041;-58
2023/02/19 13:35:39;;;;;;;19.15;14.90;;;;;;;;;;9998737;28;20108;-58
2023/02/19 13:40:42;;;;;;;17.27;14.43;;;;;;;;;;9996502;28;20097;-58
2023/02/19 13:46:03;;;;;;;15.57;13.82;;;;;;;;;;10002941;28;20053;-58
2023/02/19 13:51:11;;;;;;;16.25;14.65;;;;;;;;;;9998385;28;20065;-59
2023/02/19 13:56:34;;;;;;;17.40;15.55;;;;;;;;;;9992925;28;20140;-59
2023/02/19 14:01:48;;;;;;;16.98;15.25;;;;;;;;;;10000507;28;20053;-59
2023/02/19 14:07:03;;;;;;;17.40;14.75;;;;;;;;;;9999584;28;20045;-59
2023/02/19 14:12:17;;;;;;;18.33;15.18;;;;;;;;;;10010356;28;20121;-59
2023/02/19 14:17:35;;;;;;;18.60;15.52;;;;;;;;;;10016947;28;20483;-59
2023/02/19 14:22:55;;;;;;;20.23;14.40;;;;;;;;;;10017267;28;20101;-59
2023/02/19 14:27:49;;;;;;;19.40;13.85;;;;;;;;;;10017582;28;20526;-59
2023/02/19 14:32:42;;;;;;;17.38;14.38;;;;;;;;;;9999850;28;20058;-59
2023/02/19 14:37:38;;;;;;;18.63;14.18;;;;;;;;;;10007561;28;20050;-59
2023/02/19 14:42:33;;;;;;;17.80;14.55;;;;;;;;;;10018539;28;20050;-59
2023/02/19 14:47:29;;;;;;;18.60;14.40;;;;;;;;;;10004127;28;20066;-59
2023/02/19 14:52:30;;;;;;;19.42;14.07;;;;;;;;;;10006317;28;20045;-58
2023/02/19 14:57:31;;;;;;;20.80;13.57;;;;;;;;;;10004581;28;20085;-58
2023/02/19 15:02:28;;;;;;;15.55;13.82;;;;;;;;;;10015693;28;20054;-57
2023/02/19 15:07:24;;;;;;;15.73;13.95;;;;;;;;;;10004393;28;20153;-58
2023/02/19 15:12:20;;;;;;;16.00;13.32;;;;;;;;;;10018167;28;20049;-58
2023/02/19 15:17:20;;;;;;;14.32;12.82;;;;;;;;;;10023201;28;20050;-58
2023/02/19 15:22:20;;;;;;;15.23;13.45;;;;;;;;;;10024635;28;20081;-58
2023/02/19 15:27:20;;;;;;;15.35;13.27;;;;;;;;;;10014085;28;20502;-58
2023/02/19 15:32:34;;;;;;;16.80;13.93;;;;;;;;;;10021466;28;20050;-58
2023/02/19 15:37:29;;;;;;;17.23;14.27;;;;;;;;;;10023126;28;20054;-58
2023/02/19 15:42:25;;;;;;;15.52;13.80;;;;;;;;;;10024443;28;20398;-58
2023/02/19 15:47:36;;;;;;;17.88;14.85;;;;;;;;;;10027846;28;20061;-57
2023/02/19 15:52:35;;;;;;;15.25;13.35;;;;;;;;;;10027664;28;20096;-57
2023/02/19 15:57:32;;;;;;;21.48;13.85;;;;;;;;;;10022785;28;20482;-58
2023/02/19 16:02:26;;;;;;;16.10;14.40;;;;;;;;;;10015148;28;20068;-58
2023/02/19 16:07:33;;;;;;;20.40;16.10;;;;;;;;;;10019969;28;20095;-57
2023/02/19 16:12:27;;;;;;;19.40;14.50;;;;;;;;;;10018025;28;20058;-58
2023/02/19 16:17:21;;;;;;;18.25;14.57;;;;;;;;;;10023616;28;20495;-58
2023/02/19 16:22:19;;;;;;;16.27;14.52;;;;;;;;;;9992945;28;20062;-58
2023/02/19 16:27:13;;;;;;;16.58;14.50;;;;;;;;;;10017677;28;20072;-57
2023/02/19 16:32:12;;;;;;;22.77;16.30;;;;;;;;;;10021389;28;20046;-58
2023/02/19 16:37:31;;;;;;;21.98;17.10;;;;;;;;;;10024624;28;20410;-58
2023/02/19 16:42:26;;;;;;;17.83;15.68;;;;;;;;;;10025040;28;20083;-57
2023/02/19 16:47:32;;;;;;;18.45;15.75;;;;;;;;;;10019407;28;20145;-57
2023/02/19 16:52:25;;;;;;;19.48;16.00;;;;;;;;;;10010909;28;20054;-58
2023/02/19 16:57:19;;;;;;;20.63;16.98;;;;;;;;;;10029066;28;20046;-58
2023/02/19 17:02:20;;;;;;;21.38;17.40;;;;;;;;;;10029731;28;20073;-57
2023/02/19 17:07:14;;;;;;;18.00;16.08;;;;;;;;;;10030843;28;20070;-58
2023/02/19 17:12:12;;;;;;;19.38;16.85;;;;;;;;;;10009039;28;20054;-58
2023/02/19 17:17:04;;;;;;;19.67;16.88;;;;;;;;;;9996382;28;20050;-58
2023/02/19 17:21:57;;;;;;;23.08;19.90;;;;;;;;;;10011193;28;22097;-57
2023/02/19 17:26:51;;;;;;;26.67;21.42;;;;;;;;;;10011472;28;20497;-57
2023/02/19 17:31:43;;;;;;;29.45;24.70;;;;;;;;;;10015978;28;20064;-59
2023/02/19 17:36:37;;;;;;;27.40;22.80;;;;;;;;;;10012883;28;20502;-58
2023/02/19 17:41:31;;;;;;;27.95;24.58;;;;;;;;;;10003685;28;20106;-63
2023/02/19 17:46:26;;;;;;;26.80;23.50;;;;;;;;;;10015967;28;20045;-58
2023/02/19 17:51:20;;;;;;;31.48;27.08;;;;;;;;;;10015846;28;20066;-58
2023/02/19 17:56:21;;;;;;;31.02;25.33;;;;;;;;;;10013398;28;20053;-58
2023/02/19 18:01:13;;;;;;;37.42;27.88;;;;;;;;;;10016205;28;20488;-57
2023/02/19 18:06:07;;;;;;;49.72;34.53;;;;;;;;;;10016543;28;20049;-57
2023/02/19 18:11:01;;;;;;;46.40;35.30;;;;;;;;;;10010625;28;20060;-60
2023/02/19 18:15:54;;;;;;;43.97;35.28;;;;;;;;;;10030699;28;20408;-60
2023/02/19 18:20:49;;;;;;;55.90;37.10;;;;;;;;;;10029153;28;20085;-58
2023/02/19 18:25:41;;;;;;;42.15;32.88;;;;;;;;;;10029632;28;20056;-58
2023/02/19 18:30:35;;;;;;;33.13;27.13;;;;;;;;;;10024151;28;20057;-60
2023/02/19 18:35:28;;;;;;;35.03;23.60;;;;;;;;;;10018347;28;20046;-60
2023/02/19 18:40:24;;;;;;;25.80;22.23;;;;;;;;;;10011674;28;20136;-59
2023/02/19 18:45:17;;;;;;;33.30;24.05;;;;;;;;;;10012981;28;20152;-58
2023/02/19 18:50:12;;;;;;;30.00;26.30;;;;;;;;;;10007909;28;20182;-57
2023/02/19 18:55:09;;;;;;;32.78;27.73;;;;;;;;;;10003811;28;20097;-58
2023/02/19 19:00:06;;;;;;;38.83;30.30;;;;;;;;;;9994246;28;20042;-60
2023/02/19 19:04:59;;;;;;;54.25;38.25;;;;;;;;;;9994050;28;20050;-58
2023/02/19 19:09:53;;;;;;;46.42;36.03;;;;;;;;;;9991707;28;20042;-57
2023/02/19 19:14:46;;;;;;;41.35;33.13;;;;;;;;;;9991288;28;20538;-58
2023/02/19 19:19:40;;;;;;;47.65;35.83;;;;;;;;;;9993622;28;20500;-58
2023/02/19 19:24:33;;;;;;;53.08;38.40;;;;;;;;;;9999193;28;20053;-58
2023/02/19 19:29:26;;;;;;;44.58;36.38;;;;;;;;;;10009003;28;20474;-58
2023/02/19 19:34:19;;;;;;;41.60;33.10;;;;;;;;;;10013250;28;20104;-58
2023/02/19 19:39:14;;;;;;;41.55;33.03;;;;;;;;;;10005427;28;20062;-59
2023/02/19 19:44:08;;;;;;;38.30;33.15;;;;;;;;;;10006681;28;20072;-59
2023/02/19 19:49:02;;;;;;;65.07;44.65;;;;;;;;;;10010913;28;20482;-58
2023/02/19 19:53:54;;;;;;;73.88;48.55;;;;;;;;;;10019381;28;20065;-58
2023/02/19 19:58:47;;;;;;;62.65;44.67;;;;;;;;;;10014313;28;20078;-58
2023/02/19 20:03:41;;;;;;;57.80;44.72;;;;;;;;;;9990506;28;20499;-58
2023/02/19 20:08:34;;;;;;;63.20;45.63;;;;;;;;;;9992942;28;20046;-58
2023/02/19 20:13:29;;;;;;;52.90;39.38;;;;;;;;;;10014715;28;20527;-61
2023/02/19 20:18:24;;;;;;;47.95;38.55;;;;;;;;;;10007010;28;20042;-58
2023/02/19 20:23:19;;;;;;;53.28;37.67;;;;;;;;;;10010845;28;20115;-58
2023/02/19 20:28:13;;;;;;;56.38;38.65;;;;;;;;;;10012829;28;20046;-58
2023/02/19 20:33:06;;;;;;;53.53;39.40;;;;;;;;;;10013752;28;20057;-60
2023/02/19 20:37:59;;;;;;;47.10;36.30;;;;;;;;;;10009485;28;20100;-60
2023/02/19 20:42:53;;;;;;;49.13;35.20;;;;;;;;;;10013592;28;20034;-58
2023/02/19 20:47:46;;;;;;;44.90;32.97;;;;;;;;;;10014208;28;20042;-58
2023/02/19 20:52:40;;;;;;;51.30;36.17;;;;;;;;;;10010646;28;20996;-58
2023/02/19 20:57:36;;;;;;;52.80;35.42;;;;;;;;;;10009754;28;20058;-57
2023/02/19 21:02:29;;;;;;;48.50;36.47;;;;;;;;;;10011021;28;20065;-58
2023/02/19 21:07:24;;;;;;;46.80;34.65;;;;;;;;;;9997653;28;20547;-57
2023/02/19 21:12:21;;;;;;;40.63;33.88;;;;;;;;;;10001357;28;20058;-58
2023/02/19 21:17:15;;;;;;;46.65;32.72;;;;;;;;;;9995596;28;20046;-58
2023/02/19 21:22:10;;;;;;;42.75;32.22;;;;;;;;;;10000715;28;20534;-59
2023/02/19 21:27:04;;;;;;;40.95;31.33;;;;;;;;;;10013010;28;20049;-59
2023/02/19 21:31:57;;;;;;;37.38;29.20;;;;;;;;;;10004669;28;20050;-59
2023/02/19 21:36:51;;;;;;;46.00;35.17;;;;;;;;;;10005827;28;20042;-57
2023/02/19 21:41:46;;;;;;;45.83;33.55;;;;;;;;;;10014620;28;20499;-59
2023/02/19 21:46:40;;;;;;;46.30;37.17;;;;;;;;;;10012494;28;20052;-59
2023/02/19 21:51:36;;;;;;;52.05;37.47;;;;;;;;;;10017545;28;20113;-58
2023/02/19 21:56:31;;;;;;;44.58;35.60;;;;;;;;;;10010905;28;20372;-56
2023/02/19 22:01:30;;;;;;;47.78;35.03;;;;;;;;;;10011950;28;20068;-56
2023/02/19 22:06:25;;;;;;;49.47;36.38;;;;;;;;;;10019296;28;20042;-57
2023/02/19 22:11:20;;;;;;;46.33;33.35;;;;;;;;;;10018435;28;20791;-55
2023/02/19 22:16:13;;;;;;;51.65;36.83;;;;;;;;;;10013610;28;20089;-56
2023/02/19 22:21:06;;;;;;;51.00;36.85;;;;;;;;;;10006544;28;20165;-60
2023/02/19 22:26:00;;;;;;;51.88;34.70;;;;;;;;;;10022367;28;20054;-57
2023/02/19 22:30:54;;;;;;;59.38;37.63;;;;;;;;;;10021643;28;20046;-57
2023/02/19 22:35:47;;;;;;;49.53;34.83;;;;;;;;;;10009901;28;20053;-57
2023/02/19 22:40:41;;;;;;;50.00;37.75;;;;;;;;;;10020175;28;20049;-57
2023/02/19 22:45:34;;;;;;;50.95;38.42;;;;;;;;;;10012599;28;20458;-57
2023/02/19 22:50:28;;;;;;;47.70;37.22;;;;;;;;;;10011461;28;20081;-57
2023/02/19 22:55:21;;;;;;;54.95;40.83;;;;;;;;;;10012522;28;20053;-57
2023/02/19 23:00:17;;;;;;;48.95;37.90;;;;;;;;;;10011574;28;20467;-57
2023/02/19 23:05:10;;;;;;;52.92;40.80;;;;;;;;;;10009975;28;20093;-57
2023/02/19 23:10:08;;;;;;;50.70;39.33;;;;;;;;;;10014364;28;20061;-57
2023/02/19 23:15:01;;;;;;;52.47;39.83;;;;;;;;;;10006629;28;20050;-57
2023/02/19 23:19:53;;;;;;;50.22;40.55;;;;;;;;;;10009748;28;20057;-60
2023/02/19 23:24:46;;;;;;;54.58;42.05;;;;;;;;;;10016193;28;20438;-60
2023/02/19 23:29:39;;;;;;;47.33;37.75;;;;;;;;;;10017390;28;20046;-58
2023/02/19 23:34:34;;;;;;;55.20;40.83;;;;;;;;;;10013754;28;20073;-58
2023/02/19 23:39:27;;;;;;;68.70;42.03;;;;;;;;;;10007982;28;20064;-59
2023/02/19 23:44:22;;;;;;;57.80;41.83;;;;;;;;;;10000461;28;20129;-59
2023/02/19 23:49:15;;;;;;;54.92;41.70;;;;;;;;;;10009876;28;20062;-58
2023/02/19 23:54:09;;;;;;;48.58;38.53;;;;;;;;;;10005348;28;20045;-60
2023/02/19 23:59:02;;;;;;;48.17;35.80;;;;;;;;;;10011905;28;20044;-58
